Forest Glade, Texas
Current Conditions -  °F | °C
As of 3:15 PM on Monday 24 Nov 2014 (Local Time) from KLXY Reporting Station
Clear Clear  
Wind Chill: 61°   Ceiling: Unl
Heat Index: 61°   Visibility: 10mi
Dew Point: 26°   Wind: 9mph
Humidity: 26%   Direction: 330°NNW
Pressure: 30.05"   Gusts: NA
Location:  31.6887°N, 96.511°W
Report Text: KLXY 242115Z AUTO 33008KT 10SM CLR 16/M04 A3005 RMK AO2 T01591036
Loading
Personal Weather Stations






























Interactive Weather Map New forecast layout! Learn more

10-Day Weather Forecast

Advertisements
Track Severe Weather on mobile